Página principal
METAR-TAF:

METAR-TAF

Aeroportos :

Koror, Babeldaob, Palau

latitude: 07-22N, longitude: 134-32E, altura: 54 m

Observação actual do tempo

O boletim foi feito há 51 minutos, às 16:50 UTC
Vento calmo
Temperatura 25°C
Humidade 89%
Pressão 1011 hPa
Visibilidade: 24.1 km
Nuvens dispersasa uma altura de 1600 ft
Nuvens fragmentadasa uma altura de 30000 ft

METAR: PTRO 201650Z 00000KT 15SM SCT016 BKN300 25/23 A2984

Hora: 02:41 (17:41 UTC)

Previsão

O boletim foi feito há 6 horas e 21 minutos, às 11:20 UTC
Previsão válida de 20 às 12 UTC a 21 às 12 UTC
Vento 8 kt de nordeste
Visibilidade: 10 km
Nuvens dispersasa uma altura de 1600 ft
Nuvens dispersasa uma altura de 5000 ft
A partir de 20 às 2300 UTC
Vento 15 kt de nordeste
Visibilidade: 10 km
Nuvens dispersasa uma altura de 1600 ft
Nuvens dispersasa uma altura de 5000 ft

TAF: PTRO 201120Z 2012/2112 04008KT P6SM SCT016 SCT050 FM202300 05015KT P6SM SCT016 SCT050

Observações e previsões do tempo de mais de 4000 aeroportos (mensagens METAR e TAF).

As estações disponíveis são os pontos amarelos e vermelhos sobre o mapa.

Mova o rato sobre o mapa para ver o nome da estação.

Depois clique no ponto para visualizar as observações e previsões meteorológicas.

Para alterar o mapa : clique nos botões verdes com uma cruz preta para aumentar o zoom; no botão verde com uma pitada de zoom; ou nas setas verdes para mapas adjacentes.


METAR-TAF: